Randolph, South Dakota
Current Conditions -  °F | °C
As of 4:53 AM on Wednesday 26 Nov 2014 (Local Time) from KABR Reporting Station
Broken Clouds Broken Clouds  
Wind Chill: -6°   Ceiling: 12000
Heat Index: 13°   Visibility: 10mi
Dew Point:   Wind: 22mph
Humidity: 81%   Direction: 10°N
Pressure: 30.18"   Gusts: NA
Location:  45.2844°N, 98.2863°W
Report Text: KABR 261053Z AUTO 01019KT 10SM FEW009 BKN120 M11/M13 A3018 RMK AO2 PK WND 01029/1011 UPB07E12SNE07 SLP239 P0000 T11061133
Loading
Personal Weather Stations






























Interactive Weather Map New forecast layout! Learn more

10-Day Weather Forecast

Advertisements
Track Severe Weather on mobile